Time;durP1;ratioP1;P1;durP2;ratioP2;P2;SDS_P1;SDS_P2;PMS_P1;PMS_P2;Temp;Humidity;BMP_temperature;BMP_pressure;BME280_temperature;BME280_humidity;BME280_pressure;Samples;Min_cycle;Max_cycle;Signal;HPM_P1;HPM_P2
2023/11/17 00:01:17;;;;;;;0.40;0.40;;;5.90;99.90;;;;;;5023676;28;21305;-84
2023/11/17 00:03:43;;;;;;;0.53;0.53;;;5.90;99.90;;;;;;5040783;28;20215;-84
2023/11/17 00:06:08;;;;;;;1.17;1.13;;;5.90;99.90;;;;;;5008878;28;20809;-84
2023/11/17 00:08:35;;;;;;;0.87;0.87;;;5.90;99.90;;;;;;5008073;28;21132;-84
2023/11/17 00:11:00;;;;;;;0.50;0.50;;;5.90;99.90;;;;;;5058501;28;20240;-83
2023/11/17 00:13:26;;;;;;;0.67;0.67;;;5.90;99.90;;;;;;5059213;28;20233;-84
2023/11/17 00:15:52;;;;;;;0.40;0.40;;;5.80;99.90;;;;;;5007324;28;20251;-83
2023/11/17 00:18:20;;;;;;;0.53;0.53;;;5.80;99.90;;;;;;5024033;28;20288;-84
2023/11/17 00:20:46;;;;;;;1.03;1.03;;;5.80;99.90;;;;;;5040914;28;20197;-83
2023/11/17 00:23:14;;;;;;;1.10;1.00;;;5.80;99.90;;;;;;5023972;28;20221;-84
2023/11/17 00:25:40;;;;;;;1.77;1.67;;;5.80;99.90;;;;;;5043205;28;20316;-84
2023/11/17 00:28:05;;;;;;;1.10;1.00;;;5.80;99.90;;;;;;5028600;28;20723;-84
2023/11/17 00:30:31;;;;;;;1.03;1.03;;;5.80;99.90;;;;;;5027658;28;20641;-83
2023/11/17 00:32:57;;;;;;;0.93;0.93;;;5.80;99.90;;;;;;5044498;28;20796;-84
2023/11/17 00:35:23;;;;;;;0.53;0.53;;;5.80;99.90;;;;;;5063308;28;20229;-85
2023/11/17 00:37:51;;;;;;;0.63;0.63;;;5.70;99.90;;;;;;5027213;28;20328;-84
2023/11/17 00:40:17;;;;;;;0.50;0.50;;;5.80;99.90;;;;;;5044887;28;20219;-83
2023/11/17 00:42:43;;;;;;;0.80;0.80;;;5.70;99.90;;;;;;5043999;28;20310;-82
2023/11/17 00:45:09;;;;;;;1.07;1.07;;;5.80;99.90;;;;;;5044559;28;20311;-83
2023/11/17 00:47:35;;;;;;;8.10;1.63;;;5.80;99.90;;;;;;5043625;28;20278;-84
2023/11/17 00:50:01;;;;;;;0.63;0.63;;;5.80;99.90;;;;;;5026928;28;20280;-83
2023/11/17 00:52:27;;;;;;;0.63;0.63;;;5.80;99.90;;;;;;5061622;28;20704;-83
2023/11/17 00:54:55;;;;;;;0.57;0.57;;;5.70;99.90;;;;;;5010224;28;20232;-83
2023/11/17 00:57:21;;;;;;;1.53;0.63;;;5.70;99.90;;;;;;5044501;28;20197;-83
2023/11/17 00:59:47;;;;;;;1.07;1.07;;;5.70;99.90;;;;;;5043870;28;20602;-83
2023/11/17 01:02:15;;;;;;;0.80;0.80;;;5.70;99.90;;;;;;5026801;28;20221;-84
2023/11/17 01:04:42;;;;;;;1.10;1.10;;;5.60;99.90;;;;;;5061584;28;20221;-84
2023/11/17 01:07:07;;;;;;;0.60;0.60;;;5.60;99.90;;;;;;5043901;28;20324;-83
2023/11/17 01:09:33;;;;;;;2.20;1.83;;;5.70;99.90;;;;;;5027070;28;20235;-85
2023/11/17 01:11:59;;;;;;;1.30;0.87;;;5.70;99.90;;;;;;5044116;28;20198;-84
2023/11/17 01:14:25;;;;;;;0.77;0.77;;;5.70;99.90;;;;;;5059667;28;20229;-84
2023/11/17 01:16:51;;;;;;;0.50;0.50;;;5.70;99.90;;;;;;5060802;28;20236;-84
2023/11/17 01:19:17;;;;;;;0.77;0.77;;;5.60;99.90;;;;;;5027074;28;20641;-84
2023/11/17 01:21:43;;;;;;;0.73;0.73;;;5.60;99.90;;;;;;5010091;28;20328;-84
2023/11/17 01:24:09;;;;;;;0.63;0.63;;;5.60;99.90;;;;;;5027709;28;20181;-83
2023/11/17 01:26:35;;;;;;;0.60;0.60;;;5.60;99.90;;;;;;5043196;28;20240;-84
2023/11/17 01:29:04;;;;;;;0.97;0.73;;;5.60;99.90;;;;;;5043387;28;20221;-83
2023/11/17 01:31:30;;;;;;;1.27;1.17;;;5.60;99.90;;;;;;5026532;28;20962;-83
2023/11/17 01:33:55;;;;;;;1.17;1.07;;;5.60;99.90;;;;;;5026062;28;20251;-84
2023/11/17 01:36:21;;;;;;;0.53;0.53;;;5.60;99.90;;;;;;5042291;28;21058;-84
2023/11/17 01:38:48;;;;;;;0.47;0.47;;;5.60;99.90;;;;;;5043860;28;20644;-84
2023/11/17 01:41:14;;;;;;;0.53;0.43;;;5.60;99.90;;;;;;5060812;28;20764;-84
2023/11/17 01:43:40;;;;;;;1.20;1.20;;;5.60;99.90;;;;;;5061062;28;20312;-84
2023/11/17 01:46:06;;;;;;;2.83;1.37;;;5.60;99.90;;;;;;5026457;28;20316;-84
2023/11/17 01:48:34;;;;;;;1.53;1.43;;;5.60;99.90;;;;;;5015057;28;20708;-83
2023/11/17 01:51:01;;;;;;;0.50;0.50;;;5.60;99.90;;;;;;5043081;28;20213;-83
2023/11/17 01:53:28;;;;;;;2.33;1.70;;;5.50;99.90;;;;;;5026608;28;20221;-83
2023/11/17 01:55:54;;;;;;;0.87;0.80;;;5.50;99.90;;;;;;5042045;28;20225;-83
2023/11/17 01:58:20;;;;;;;0.73;0.73;;;5.50;99.90;;;;;;5042655;28;20287;-84
2023/11/17 02:00:46;;;;;;;0.77;0.77;;;5.50;99.90;;;;;;5041630;28;20228;-84
2023/11/17 02:03:13;;;;;;;0.70;0.70;;;5.50;99.90;;;;;;5060705;28;20224;-83
2023/11/17 02:05:39;;;;;;;1.97;1.87;;;5.50;99.90;;;;;;5042444;28;21094;-85
2023/11/17 02:08:17;;;;;;;0.43;0.43;;;5.50;99.90;;;;;;5025999;28;20217;-83
2023/11/17 02:10:46;;;;;;;1.03;1.03;;;5.50;99.90;;;;;;5040786;28;20252;-83
2023/11/17 02:13:25;;;;;;;0.83;0.83;;;5.40;99.90;;;;;;5060373;28;20259;-83
2023/11/17 02:15:55;;;;;;;1.10;1.10;;;5.40;99.90;;;;;;5042006;28;20301;-84
2023/11/17 02:18:22;;;;;;;0.97;0.97;;;5.50;99.90;;;;;;5037999;28;20643;-83
2023/11/17 02:20:52;;;;;;;0.60;0.60;;;5.50;99.90;;;;;;5042309;28;20285;-84
2023/11/17 02:23:19;;;;;;;0.50;0.50;;;5.50;99.90;;;;;;5060159;28;20220;-84
2023/11/17 02:25:51;;;;;;;0.67;0.67;;;5.50;99.90;;;;;;5042294;28;20229;-83
2023/11/17 02:28:47;;;;;;;0.33;0.33;;;5.50;99.90;;;;;;5042059;28;20232;-84
2023/11/17 02:31:19;;;;;;;0.80;0.80;;;5.50;99.90;;;;;;5042177;28;20823;-84
2023/11/17 02:33:48;;;;;;;1.10;1.00;;;5.40;99.90;;;;;;5025263;28;20220;-83
2023/11/17 02:36:18;;;;;;;0.60;0.60;;;5.50;99.90;;;;;;5025829;28;20189;-83
2023/11/17 02:38:51;;;;;;;0.67;0.67;;;5.50;99.90;;;;;;5060416;28;20186;-83
2023/11/17 02:41:29;;;;;;;0.40;0.40;;;5.60;99.90;;;;;;5042480;28;20217;-83
2023/11/17 02:43:59;;;;;;;0.40;0.40;;;5.60;99.90;;;;;;5026611;28;20755;-84
2023/11/17 02:46:27;;;;;;;0.20;0.20;;;5.70;99.90;;;;;;5042556;28;20324;-83
2023/11/17 02:48:52;;;;;;;0.80;0.80;;;5.70;99.90;;;;;;5041625;28;20225;-84
2023/11/17 02:51:18;;;;;;;0.40;0.40;;;5.70;99.90;;;;;;5042001;28;20247;-84
2023/11/17 02:53:49;;;;;;;1.30;0.40;;;5.80;99.90;;;;;;5025506;28;20657;-83
2023/11/17 02:56:19;;;;;;;0.87;0.87;;;5.90;99.90;;;;;;5042589;28;20646;-83
2023/11/17 02:58:54;;;;;;;0.50;0.50;;;5.90;99.90;;;;;;5025424;28;20258;-84
2023/11/17 03:01:20;;;;;;;5.90;1.33;;;5.90;99.90;;;;;;5042042;28;20584;-84
2023/11/17 03:03:47;;;;;;;0.60;0.60;;;5.90;99.90;;;;;;5025158;28;20255;-84
2023/11/17 03:06:14;;;;;;;0.30;0.30;;;6.00;99.90;;;;;;5042306;28;20271;-84
2023/11/17 03:08:41;;;;;;;0.40;0.40;;;6.00;99.90;;;;;;5008888;28;20992;-84
2023/11/17 03:11:07;;;;;;;0.97;0.97;;;6.10;99.90;;;;;;5007696;28;20255;-85
2023/11/17 03:13:33;;;;;;;0.43;0.40;;;6.00;99.90;;;;;;5041630;28;20232;-83
2023/11/17 03:15:59;;;;;;;0.30;0.30;;;6.00;99.90;;;;;;5023956;28;20228;-83
2023/11/17 03:18:26;;;;;;;0.60;0.60;;;6.10;99.90;;;;;;5040741;28;20196;-85
2023/11/17 03:20:56;;;;;;;0.50;0.50;;;6.10;99.90;;;;;;5042211;28;20189;-84
2023/11/17 03:23:23;;;;;;;1.03;1.03;;;6.00;99.90;;;;;;5042341;28;20298;-84
2023/11/17 03:25:52;;;;;;;0.87;0.87;;;6.00;99.90;;;;;;5008574;28;20276;-84
2023/11/17 03:28:19;;;;;;;0.60;0.60;;;6.00;99.90;;;;;;5024379;28;20217;-83
2023/11/17 03:30:44;;;;;;;2.03;0.60;;;6.00;99.90;;;;;;5040947;28;20324;-84
2023/11/17 03:33:11;;;;;;;0.60;0.60;;;6.00;99.90;;;;;;5025069;28;20203;-83
2023/11/17 03:35:40;;;;;;;0.60;0.60;;;6.00;99.90;;;;;;5008512;28;20232;-84
2023/11/17 03:38:08;;;;;;;0.57;0.57;;;6.00;99.90;;;;;;5017028;28;20630;-84
2023/11/17 03:40:36;;;;;;;9.33;1.27;;;6.00;99.90;;;;;;5040177;28;20271;-84
2023/11/17 03:43:02;;;;;;;0.60;0.50;;;6.00;99.90;;;;;;5024069;28;20336;-84
2023/11/17 03:45:27;;;;;;;0.53;0.37;;;6.00;99.90;;;;;;5023093;28;20217;-83
2023/11/17 03:47:54;;;;;;;0.50;0.50;;;6.00;99.90;;;;;;5040112;28;21059;-84
2023/11/17 03:50:20;;;;;;;0.77;0.77;;;6.00;99.90;;;;;;5023538;28;20720;-84
2023/11/17 03:52:45;;;;;;;1.03;1.03;;;6.00;99.90;;;;;;5057623;28;20221;-83
2023/11/17 03:55:11;;;;;;;1.33;0.73;;;6.00;99.90;;;;;;5024349;28;20258;-84
2023/11/17 03:57:37;;;;;;;1.40;1.30;;;6.00;99.90;;;;;;5056250;28;20235;-84
2023/11/17 04:00:07;;;;;;;0.30;0.30;;;6.00;99.90;;;;;;5023860;28;20240;-84
2023/11/17 04:02:33;;;;;;;1.43;1.43;;;6.00;99.90;;;;;;5058041;28;20228;-85
2023/11/17 04:05:03;;;;;;;0.47;0.47;;;6.00;99.90;;;;;;5040447;28;20752;-84
2023/11/17 04:07:29;;;;;;;0.80;0.80;;;6.00;99.90;;;;;;5040856;28;20275;-84
2023/11/17 04:09:55;;;;;;;0.30;0.30;;;6.00;99.90;;;;;;5040552;28;20213;-84
2023/11/17 04:12:21;;;;;;;1.13;0.40;;;6.00;99.90;;;;;;5024068;28;21275;-84
2023/11/17 04:14:46;;;;;;;0.70;0.70;;;6.00;99.90;;;;;;5025046;28;20193;-84
2023/11/17 04:17:13;;;;;;;0.47;0.47;;;6.00;99.90;;;;;;5023571;28;20345;-83
2023/11/17 04:19:40;;;;;;;1.20;0.70;;;6.00;99.90;;;;;;5003040;28;20271;-84
2023/11/17 04:22:07;;;;;;;0.90;0.90;;;5.90;99.90;;;;;;5041123;28;20217;-83
2023/11/17 04:24:33;;;;;;;0.23;0.23;;;5.80;99.90;;;;;;5024743;28;20271;-83
2023/11/17 04:26:59;;;;;;;0.20;0.20;;;5.70;99.90;;;;;;5040336;28;20276;-84
2023/11/17 04:29:25;;;;;;;1.30;0.67;;;5.70;99.90;;;;;;5041156;28;20641;-82
2023/11/17 04:31:54;;;;;;;0.40;0.40;;;5.60;99.90;;;;;;5024356;28;20225;-82
2023/11/17 04:34:22;;;;;;;0.40;0.40;;;5.60;99.90;;;;;;5023631;28;20225;-82
2023/11/17 04:36:48;;;;;;;0.60;0.60;;;5.60;99.90;;;;;;5058371;28;20810;-82
2023/11/17 04:39:17;;;;;;;0.50;0.50;;;5.50;99.90;;;;;;5058263;28;20201;-82
2023/11/17 04:41:44;;;;;;;1.27;1.27;;;5.50;99.90;;;;;;5059145;28;20189;-82
2023/11/17 04:44:10;;;;;;;20.77;1.17;;;5.50;99.90;;;;;;5024052;28;20224;-83
2023/11/17 04:46:36;;;;;;;0.20;0.20;;;5.50;99.90;;;;;;5058398;28;20249;-83
2023/11/17 04:49:01;;;;;;;0.97;0.67;;;5.50;99.90;;;;;;5058048;28;20655;-82
2023/11/17 04:51:27;;;;;;;8.60;1.23;;;5.50;99.90;;;;;;5024447;28;20233;-83
2023/11/17 04:53:53;;;;;;;0.43;0.43;;;5.50;99.90;;;;;;5059069;28;20285;-83
2023/11/17 04:56:19;;;;;;;0.60;0.60;;;5.50;99.90;;;;;;5057664;28;20221;-83
2023/11/17 04:58:45;;;;;;;0.70;0.70;;;5.50;99.90;;;;;;5041819;28;20266;-82
2023/11/17 05:01:14;;;;;;;0.47;0.47;;;5.60;99.90;;;;;;4999042;28;20225;-82
2023/11/17 05:03:41;;;;;;;0.40;0.40;;;5.60;99.90;;;;;;5041083;28;20263;-83
2023/11/17 05:06:06;;;;;;;1.00;0.93;;;5.70;99.90;;;;;;5024318;28;20225;-82
2023/11/17 05:08:33;;;;;;;0.90;0.90;;;5.70;99.90;;;;;;5024607;28;20221;-83
2023/11/17 05:11:04;;;;;;;2.53;0.30;;;5.70;99.90;;;;;;5024783;28;20221;-82
2023/11/17 05:13:30;;;;;;;0.30;0.30;;;5.60;99.90;;;;;;5043177;28;20221;-82
2023/11/17 05:15:56;;;;;;;0.50;0.50;;;5.60;99.90;;;;;;5044568;28;20308;-83
2023/11/17 05:18:22;;;;;;;0.60;0.57;;;5.50;99.90;;;;;;5044510;28;20243;-83
2023/11/17 05:20:48;;;;;;;0.50;0.50;;;5.50;99.90;;;;;;5011302;28;20186;-83
2023/11/17 05:23:16;;;;;;;0.60;0.60;;;5.50;99.90;;;;;;5062343;28;20704;-83
2023/11/17 05:25:43;;;;;;;0.40;0.40;;;5.50;99.90;;;;;;5027695;28;20233;-82
2023/11/17 05:28:09;;;;;;;0.83;0.83;;;5.50;99.90;;;;;;5027835;28;20233;-82
2023/11/17 05:30:36;;;;;;;0.70;0.70;;;5.50;99.90;;;;;;5061920;28;20232;-83
2023/11/17 05:33:02;;;;;;;1.33;1.23;;;5.50;99.90;;;;;;5044465;28;20189;-83
2023/11/17 05:35:28;;;;;;;0.73;0.73;;;5.40;99.90;;;;;;5043649;28;20692;-83
2023/11/17 05:37:54;;;;;;;1.27;0.53;;;5.30;99.90;;;;;;5061930;28;20676;-83
2023/11/17 05:40:20;;;;;;;0.60;0.60;;;5.20;99.90;;;;;;5060425;28;20288;-83
2023/11/17 05:42:45;;;;;;;0.50;0.50;;;5.10;99.90;;;;;;5041969;28;20314;-83
2023/11/17 05:45:12;;;;;;;1.00;1.00;;;5.10;99.90;;;;;;5009056;28;20259;-83
2023/11/17 05:47:38;;;;;;;0.30;0.30;;;5.00;99.90;;;;;;5025302;28;20240;-83
2023/11/17 05:50:07;;;;;;;0.60;0.60;;;5.00;99.90;;;;;;5026150;28;20701;-83
2023/11/17 05:52:34;;;;;;;0.60;0.60;;;5.10;99.90;;;;;;5025188;28;20686;-83
2023/11/17 05:55:03;;;;;;;0.50;0.50;;;5.20;99.90;;;;;;5059565;28;20228;-83
2023/11/17 05:57:29;;;;;;;0.37;0.37;;;5.20;99.90;;;;;;5042493;28;20227;-83
2023/11/17 05:59:57;;;;;;;0.33;0.33;;;5.30;99.90;;;;;;5042085;28;21081;-83
2023/11/17 06:02:23;;;;;;;0.80;0.80;;;5.30;99.90;;;;;;5059213;28;20278;-82
2023/11/17 06:04:49;;;;;;;0.50;0.50;;;5.30;99.90;;;;;;5042396;28;20619;-83
2023/11/17 06:07:15;;;;;;;0.60;0.60;;;5.30;99.90;;;;;;5059257;28;20227;-83
2023/11/17 06:09:43;;;;;;;0.43;0.43;;;5.30;99.90;;;;;;5042718;28;20722;-83
2023/11/17 06:12:09;;;;;;;0.60;0.60;;;5.20;99.90;;;;;;5061772;28;20193;-82
2023/11/17 06:14:35;;;;;;;0.50;0.50;;;5.20;99.90;;;;;;5027016;28;20214;-82
2023/11/17 06:17:08;;;;;;;0.40;0.40;;;5.20;99.90;;;;;;5060667;28;20697;-83
2023/11/17 06:19:37;;;;;;;0.30;0.30;;;5.10;99.90;;;;;;5060535;28;20209;-82
2023/11/17 06:22:07;;;;;;;0.63;0.63;;;5.10;99.90;;;;;;5041450;28;20586;-83
2023/11/17 06:24:34;;;;;;;0.47;0.47;;;5.10;99.90;;;;;;5060364;28;20214;-83
2023/11/17 06:26:59;;;;;;;0.70;0.70;;;5.00;99.90;;;;;;5042785;28;20272;-83
2023/11/17 06:29:25;;;;;;;0.57;0.57;;;5.00;99.90;;;;;;5042181;28;20231;-82
2023/11/17 06:31:51;;;;;;;0.50;0.50;;;5.00;99.90;;;;;;5025661;28;21084;-82
2023/11/17 06:34:18;;;;;;;0.37;0.37;;;5.00;99.90;;;;;;5059357;28;20332;-82
2023/11/17 06:36:45;;;;;;;0.40;0.40;;;4.90;99.90;;;;;;5059817;28;20589;-81
2023/11/17 06:39:16;;;;;;;0.47;0.47;;;4.90;99.90;;;;;;5025899;28;20213;-82
2023/11/17 06:41:42;;;;;;;0.70;0.70;;;4.80;99.90;;;;;;5059282;28;20236;-82
2023/11/17 06:44:09;;;;;;;3.87;2.60;;;4.80;99.90;;;;;;5039688;28;20685;-83
2023/11/17 06:46:36;;;;;;;0.53;0.53;;;4.70;99.90;;;;;;5025291;28;20229;-83
2023/11/17 06:49:04;;;;;;;0.93;0.93;;;4.70;99.90;;;;;;5040312;28;20270;-82
2023/11/17 06:51:31;;;;;;;1.40;1.23;;;4.70;99.90;;;;;;5008553;28;20243;-83
2023/11/17 06:53:57;;;;;;;0.73;0.73;;;4.60;99.90;;;;;;5041825;28;20588;-82
2023/11/17 06:56:24;;;;;;;0.50;0.50;;;4.60;99.90;;;;;;5040897;28;20228;-83
2023/11/17 06:58:50;;;;;;;0.93;0.70;;;4.50;99.90;;;;;;5040678;28;20869;-82
2023/11/17 07:01:18;;;;;;;1.37;1.13;;;4.50;99.90;;;;;;5058088;28;20220;-83
2023/11/17 07:03:44;;;;;;;0.70;0.70;;;4.40;99.90;;;;;;5023549;28;20287;-83
2023/11/17 07:06:11;;;;;;;1.30;0.80;;;4.50;99.90;;;;;;5023961;28;21068;-83
2023/11/17 07:08:37;;;;;;;0.47;0.47;;;4.50;99.90;;;;;;5039634;28;20227;-83
2023/11/17 07:11:07;;;;;;;1.13;1.13;;;4.60;99.90;;;;;;5022950;28;20217;-84
2023/11/17 07:13:33;;;;;;;1.10;1.10;;;4.60;99.90;;;;;;5023078;28;20662;-82
2023/11/17 07:16:02;;;;;;;1.93;1.67;;;4.80;99.90;;;;;;5023290;28;20237;-83
2023/11/17 07:18:28;;;;;;;1.40;1.40;;;5.00;99.90;;;;;;4996943;28;20216;-82
2023/11/17 07:20:54;;;;;;;0.43;0.43;;;5.10;99.90;;;;;;5007890;28;20681;-82
2023/11/17 07:23:20;;;;;;;1.50;0.83;;;5.30;99.90;;;;;;5039561;28;20213;-82
2023/11/17 07:25:45;;;;;;;1.40;1.33;;;5.60;99.90;;;;;;5039941;28;20239;-82
2023/11/17 07:28:12;;;;;;;0.40;0.40;;;5.80;99.90;;;;;;5023698;28;20739;-81
2023/11/17 07:30:40;;;;;;;1.00;1.00;;;5.80;99.90;;;;;;5007786;28;20303;-82
2023/11/17 07:33:06;;;;;;;1.03;1.03;;;5.80;99.90;;;;;;5008503;28;20200;-82
2023/11/17 07:35:32;;;;;;;0.93;0.90;;;5.80;99.90;;;;;;5038605;28;20257;-82
2023/11/17 07:37:58;;;;;;;0.63;0.63;;;5.90;99.90;;;;;;5024216;28;20339;-82
2023/11/17 07:40:24;;;;;;;2.40;2.20;;;5.90;99.90;;;;;;5007766;28;20214;-82
2023/11/17 07:42:50;;;;;;;0.90;0.90;;;5.80;99.90;;;;;;5023864;28;20217;-83
2023/11/17 07:45:17;;;;;;;0.87;0.87;;;5.70;99.90;;;;;;5022416;28;20267;-82
2023/11/17 07:47:43;;;;;;;1.20;1.20;;;5.80;99.90;;;;;;5040524;28;20272;-82
2023/11/17 07:50:13;;;;;;;1.20;1.17;;;5.70;99.90;;;;;;5058110;28;20231;-82
2023/11/17 07:52:43;;;;;;;1.50;1.40;;;5.70;99.90;;;;;;5058023;28;20247;-83
2023/11/17 07:55:09;;;;;;;1.03;1.03;;;5.70;99.90;;;;;;5039514;28;20381;-82
2023/11/17 07:57:35;;;;;;;0.97;0.97;;;5.80;99.90;;;;;;5024617;28;21349;-83
2023/11/17 08:00:05;;;;;;;0.50;0.50;;;5.80;99.90;;;;;;5041361;28;20182;-82
2023/11/17 08:02:31;;;;;;;1.20;1.10;;;5.80;99.90;;;;;;5024402;28;20221;-82
2023/11/17 08:04:56;;;;;;;1.37;0.70;;;5.80;99.90;;;;;;5023604;28;20228;-82
2023/11/17 08:07:22;;;;;;;1.30;1.30;;;5.80;99.90;;;;;;5021891;28;20679;-82
2023/11/17 08:09:48;;;;;;;0.83;0.80;;;5.80;99.90;;;;;;5024099;28;20344;-83
2023/11/17 08:12:14;;;;;;;1.47;1.30;;;5.90;99.90;;;;;;5043494;28;20312;-85
2023/11/17 08:14:40;;;;;;;2.07;1.97;;;5.90;99.90;;;;;;5027895;28;20223;-85
2023/11/17 08:17:07;;;;;;;2.03;1.93;;;6.00;99.90;;;;;;5012670;28;20665;-84
2023/11/17 08:19:34;;;;;;;1.00;1.00;;;6.00;99.90;;;;;;5010822;28;20231;-86
2023/11/17 08:21:59;;;;;;;0.60;0.60;;;6.10;99.90;;;;;;5044208;28;20296;-85
2023/11/17 08:24:26;;;;;;;1.40;1.30;;;6.10;99.90;;;;;;5027590;28;20296;-85
2023/11/17 08:26:52;;;;;;;1.33;0.77;;;6.40;99.90;;;;;;5011912;28;20181;-85
2023/11/17 08:29:21;;;;;;;1.60;1.30;;;6.50;99.90;;;;;;5028191;28;20221;-85
2023/11/17 08:31:47;;;;;;;0.90;0.90;;;6.60;99.90;;;;;;5062486;28;20241;-85
2023/11/17 08:34:14;;;;;;;3.70;1.30;;;6.70;99.90;;;;;;5028070;28;20759;-84
2023/11/17 08:36:39;;;;;;;0.93;0.93;;;6.70;99.90;;;;;;5011135;28;20227;-85
2023/11/17 08:39:08;;;;;;;1.13;1.13;;;6.80;99.90;;;;;;5036298;28;20551;-86
2023/11/17 08:41:34;;;;;;;1.03;1.03;;;6.90;99.90;;;;;;5027883;28;20221;-85
2023/11/17 08:44:00;;;;;;;1.90;1.57;;;7.00;99.90;;;;;;5027312;28;20763;-86
2023/11/17 08:46:28;;;;;;;1.40;1.40;;;7.10;99.90;;;;;;5030204;28;20312;-85
2023/11/17 08:48:56;;;;;;;1.07;1.00;;;7.30;99.90;;;;;;5030544;28;20256;-85
2023/11/17 08:51:23;;;;;;;2.60;1.43;;;7.30;99.90;;;;;;5031698;28;20193;-86
2023/11/17 08:53:50;;;;;;;1.27;1.17;;;7.40;99.90;;;;;;5032291;28;20649;-84
2023/11/17 08:56:17;;;;;;;1.83;1.37;;;7.40;99.90;;;;;;5047593;28;20676;-85
2023/11/17 08:58:43;;;;;;;2.90;2.67;;;7.30;99.90;;;;;;5047699;28;20248;-86
2023/11/17 09:01:09;;;;;;;2.53;2.30;;;7.30;99.90;;;;;;5030801;28;20240;-85
2023/11/17 09:03:35;;;;;;;1.07;1.03;;;7.40;99.90;;;;;;5030751;28;20336;-86
2023/11/17 09:06:01;;;;;;;2.97;1.10;;;7.30;99.90;;;;;;5028877;28;20300;-86
2023/11/17 09:08:27;;;;;;;1.30;1.20;;;7.20;99.90;;;;;;5047109;28;20228;-86
2023/11/17 09:10:53;;;;;;;1.20;1.20;;;7.30;99.90;;;;;;5031207;28;20217;-86
2023/11/17 09:13:20;;;;;;;1.23;1.23;;;7.30;99.90;;;;;;5030868;28;20712;-86
2023/11/17 09:15:46;;;;;;;1.13;1.13;;;7.40;99.90;;;;;;5048203;28;20221;-86
2023/11/17 09:18:13;;;;;;;0.70;0.70;;;7.30;99.90;;;;;;5031583;28;20250;-85
2023/11/17 09:20:40;;;;;;;2.00;1.67;;;7.30;99.90;;;;;;5044454;28;20310;-86
2023/11/17 09:23:06;;;;;;;1.43;1.23;;;7.30;99.90;;;;;;5030786;28;20229;-86
2023/11/17 09:25:32;;;;;;;2.97;1.90;;;7.20;99.90;;;;;;5046071;28;20704;-86
2023/11/17 09:27:58;;;;;;;2.73;2.00;;;7.30;99.90;;;;;;5054894;28;20221;-86
2023/11/17 09:30:30;;;;;;;1.67;1.57;;;7.30;99.90;;;;;;5047456;28;20797;-86
2023/11/17 09:32:58;;;;;;;2.70;1.60;;;7.40;99.90;;;;;;5065587;28;20699;-85
2023/11/17 09:35:26;;;;;;;4.20;1.33;;;7.50;99.90;;;;;;5047201;28;20232;-86
2023/11/17 09:37:55;;;;;;;1.03;1.03;;;7.50;99.90;;;;;;5046807;28;20217;-85
2023/11/17 09:40:22;;;;;;;1.70;1.60;;;7.60;99.90;;;;;;5064612;28;20225;-86
2023/11/17 09:42:57;;;;;;;2.53;1.40;;;7.60;99.90;;;;;;5031798;28;20221;-85
2023/11/17 09:45:27;;;;;;;0.77;0.77;;;7.60;99.90;;;;;;5030309;28;20210;-85
2023/11/17 09:47:57;;;;;;;1.33;1.33;;;7.70;99.90;;;;;;5065777;28;20189;-86
2023/11/17 09:50:26;;;;;;;2.40;2.27;;;7.70;99.90;;;;;;5045417;28;20217;-86
2023/11/17 09:53:00;;;;;;;1.67;1.37;;;7.80;99.90;;;;;;5048585;28;20209;-86
2023/11/17 09:55:33;;;;;;;1.27;1.27;;;7.90;99.90;;;;;;5047827;28;20225;-87
2023/11/17 09:58:02;;;;;;;1.40;1.30;;;8.10;99.90;;;;;;5031238;28;20674;-86
2023/11/17 10:00:28;;;;;;;3.30;3.03;;;8.20;99.90;;;;;;5030507;28;20239;-86
2023/11/17 10:03:03;;;;;;;1.50;1.40;;;8.20;99.90;;;;;;5047709;28;20186;-87
2023/11/17 10:05:31;;;;;;;3.73;1.23;;;8.20;99.90;;;;;;5046536;28;20234;-86
2023/11/17 10:08:11;;;;;;;1.53;1.20;;;8.30;99.90;;;;;;5046826;28;20214;-86
2023/11/17 10:10:39;;;;;;;1.97;1.57;;;8.30;99.90;;;;;;5047399;28;20226;-86
2023/11/17 10:13:11;;;;;;;2.23;2.00;;;8.40;99.90;;;;;;5029859;28;20224;-87
2023/11/17 10:15:44;;;;;;;1.67;1.57;;;8.40;99.90;;;;;;5046978;28;20669;-86
2023/11/17 10:18:24;;;;;;;2.07;1.57;;;8.50;99.90;;;;;;5064918;28;20181;-86
2023/11/17 10:20:51;;;;;;;0.50;0.50;;;8.70;99.90;;;;;;5047705;28;20241;-86
2023/11/17 10:23:17;;;;;;;4.23;1.40;;;8.90;99.90;;;;;;5045981;28;20217;-86
2023/11/17 10:25:43;;;;;;;1.03;0.97;;;9.20;99.90;;;;;;5030046;28;20239;-86
2023/11/17 10:28:09;;;;;;;1.37;1.20;;;9.40;99.90;;;;;;5014173;28;20229;-86
2023/11/17 10:30:37;;;;;;;1.97;1.17;;;9.70;99.90;;;;;;5045476;28;20707;-86
2023/11/17 10:33:15;;;;;;;1.27;1.00;;;9.90;99.90;;;;;;5031659;28;20217;-85
2023/11/17 10:35:43;;;;;;;1.70;1.40;;;10.10;99.90;;;;;;5045597;28;20835;-85
2023/11/17 10:38:19;;;;;;;2.30;2.17;;;10.30;99.90;;;;;;5045708;28;20213;-86
2023/11/17 10:40:45;;;;;;;1.10;1.00;;;10.40;99.90;;;;;;5045854;28;20209;-85
2023/11/17 10:43:11;;;;;;;0.70;0.70;;;10.50;99.90;;;;;;5043992;28;20217;-82
2023/11/17 10:45:41;;;;;;;1.63;1.50;;;10.60;99.90;;;;;;5058444;28;20225;-82
2023/11/17 10:48:12;;;;;;;1.33;1.23;;;10.70;99.90;;;;;;5043107;28;20263;-84
2023/11/17 10:50:42;;;;;;;1.63;1.50;;;10.60;99.90;;;;;;5040852;28;20220;-83
2023/11/17 10:53:20;;;;;;;0.83;0.83;;;10.70;99.90;;;;;;5041507;28;20366;-83
2023/11/17 10:55:53;;;;;;;2.13;2.00;;;10.60;99.90;;;;;;5025374;28;20266;-84
2023/11/17 10:58:19;;;;;;;1.43;1.07;;;10.60;99.90;;;;;;5042227;28;20226;-83
2023/11/17 11:00:47;;;;;;;13.07;2.17;;;10.40;99.90;;;;;;5060291;28;20213;-83
2023/11/17 11:03:14;;;;;;;0.90;0.83;;;10.30;99.90;;;;;;5042718;28;20198;-83
2023/11/17 11:05:45;;;;;;;0.40;0.40;;;10.30;99.90;;;;;;5040466;28;20225;-83
2023/11/17 11:08:15;;;;;;;1.37;1.27;;;10.20;99.90;;;;;;5033232;28;20624;-84
2023/11/17 11:10:55;;;;;;;1.57;0.90;;;10.30;99.90;;;;;;5057851;28;20223;-84
2023/11/17 11:13:29;;;;;;;1.40;0.90;;;10.20;99.90;;;;;;5059524;28;20217;-83
2023/11/17 11:16:10;;;;;;;1.10;1.10;;;10.20;99.90;;;;;;5040603;28;20233;-83
2023/11/17 11:18:45;;;;;;;0.50;0.50;;;10.20;99.90;;;;;;5041365;28;20241;-83
2023/11/17 11:21:17;;;;;;;0.40;0.40;;;10.20;99.90;;;;;;5040902;28;20667;-83
2023/11/17 11:23:47;;;;;;;0.60;0.60;;;10.10;99.90;;;;;;5060275;28;20217;-82
2023/11/17 11:26:14;;;;;;;11.37;1.03;;;10.10;99.90;;;;;;5040769;28;20236;-83
2023/11/17 11:28:44;;;;;;;0.23;0.23;;;10.10;99.90;;;;;;5041198;28;20224;-82
2023/11/17 11:31:15;;;;;;;0.87;0.87;;;10.20;99.90;;;;;;5040145;28;20267;-82
2023/11/17 11:33:42;;;;;;;0.70;0.70;;;10.20;99.90;;;;;;5039372;28;20216;-82
2023/11/17 11:36:11;;;;;;;1.57;1.47;;;10.20;99.90;;;;;;5058796;28;20575;-82
2023/11/17 11:38:41;;;;;;;0.23;0.23;;;10.30;99.90;;;;;;5024706;28;21052;-82
2023/11/17 11:41:11;;;;;;;0.50;0.43;;;10.30;99.90;;;;;;5057953;28;20265;-83
2023/11/17 11:43:39;;;;;;;0.80;0.70;;;10.20;99.90;;;;;;5039023;28;20213;-82
2023/11/17 11:46:07;;;;;;;0.53;0.53;;;10.30;99.90;;;;;;5007660;28;21165;-82
2023/11/17 11:48:36;;;;;;;2.10;0.57;;;10.40;99.90;;;;;;5057897;28;20251;-82
2023/11/17 11:51:10;;;;;;;0.47;0.47;;;10.30;99.90;;;;;;5041333;28;21067;-83
2023/11/17 11:54:05;;;;;;;0.47;0.47;;;10.40;99.90;;;;;;5040686;28;20216;-82
2023/11/17 11:56:41;;;;;;;0.20;0.20;;;10.40;99.90;;;;;;5035034;28;20221;-82
2023/11/17 11:59:07;;;;;;;0.50;0.50;;;10.50;99.90;;;;;;5042198;28;20228;-83
2023/11/17 12:01:34;;;;;;;0.70;0.70;;;10.40;99.90;;;;;;5057194;28;20232;-82
2023/11/17 12:04:05;;;;;;;0.20;0.20;;;10.40;99.90;;;;;;5056733;28;20251;-82
2023/11/17 12:06:33;;;;;;;1.60;0.50;;;10.50;99.90;;;;;;5038449;28;20213;-83
2023/11/17 12:09:09;;;;;;;0.40;0.40;;;10.50;99.90;;;;;;5041169;28;20185;-84
2023/11/17 12:11:47;;;;;;;2.73;0.60;;;10.50;99.90;;;;;;5058746;28;20649;-83
2023/11/17 12:14:16;;;;;;;1.50;0.30;;;10.70;99.90;;;;;;5057618;28;21080;-82
2023/11/17 12:16:51;;;;;;;0.30;0.30;;;10.70;99.90;;;;;;5039288;28;20328;-82
2023/11/17 12:19:17;;;;;;;0.40;0.40;;;10.70;99.90;;;;;;5039977;28;20224;-81
2023/11/17 12:21:49;;;;;;;1.20;0.40;;;10.70;99.90;;;;;;5041721;28;20213;-81
2023/11/17 12:24:26;;;;;;;0.67;0.67;;;10.70;99.90;;;;;;5011789;28;20209;-82
2023/11/17 12:26:56;;;;;;;0.40;0.40;;;10.70;99.90;;;;;;5045340;28;20192;-82
2023/11/17 12:29:24;;;;;;;0.60;0.60;;;10.80;99.90;;;;;;5060991;28;20217;-81
2023/11/17 12:31:52;;;;;;;0.20;0.20;;;10.90;99.90;;;;;;5044270;28;20304;-82
2023/11/17 12:34:18;;;;;;;0.80;0.63;;;11.10;99.90;;;;;;5060969;28;20304;-81
2023/11/17 12:36:47;;;;;;;0.60;0.43;;;11.50;99.90;;;;;;5025991;28;20316;-82
2023/11/17 12:39:16;;;;;;;2.93;1.10;;;11.70;99.90;;;;;;5061445;28;20189;-81
2023/11/17 12:41:50;;;;;;;1.60;0.73;;;11.90;99.90;;;;;;5026656;28;20221;-82
2023/11/17 12:44:17;;;;;;;0.87;0.70;;;11.90;99.90;;;;;;5026571;28;20221;-82
2023/11/17 12:46:45;;;;;;;0.20;0.20;;;11.90;99.90;;;;;;5042893;28;20251;-81
2023/11/17 12:49:14;;;;;;;1.20;0.40;;;12.00;99.90;;;;;;5059414;28;20217;-82
2023/11/17 12:51:40;;;;;;;0.23;0.23;;;11.60;99.90;;;;;;5042424;28;20220;-81
2023/11/17 12:54:06;;;;;;;0.40;0.40;;;11.50;99.90;;;;;;5043801;28;20671;-81
2023/11/17 12:56:32;;;;;;;0.73;0.47;;;11.40;99.90;;;;;;5059672;28;20346;-82
2023/11/17 12:58:58;;;;;;;0.50;0.40;;;11.30;99.90;;;;;;5009911;28;20236;-81